Time;durP1;ratioP1;P1;durP2;ratioP2;P2;SDS_P1;SDS_P2;PMS_P1;PMS_P2;Temp;Humidity;BMP_temperature;BMP_pressure;BME280_temperature;BME280_humidity;BME280_pressure;Samples;Min_cycle;Max_cycle;Signal;HPM_P1;HPM_P2
2020/12/26 00:02:11;;;;;;;22.33;9.95;;;-0.70;99.90;;;;;;5089684;28;20027;-71
2020/12/26 00:04:37;;;;;;;20.55;10.05;;;-0.80;99.90;;;;;;5089283;28;20032;-73
2020/12/26 00:07:06;;;;;;;22.98;10.40;;;-0.90;99.90;;;;;;5069100;28;20031;-69
2020/12/26 00:09:32;;;;;;;24.25;10.50;;;-0.90;99.90;;;;;;5090249;28;20031;-69
2020/12/26 00:11:58;;;;;;;18.85;9.98;;;-1.00;99.90;;;;;;5089062;28;20111;-70
2020/12/26 00:14:27;;;;;;;23.17;10.80;;;-1.00;99.90;;;;;;5087392;28;20066;-67
2020/12/26 00:17:03;;;;;;;26.58;10.43;;;-1.00;99.90;;;;;;5089088;28;20526;-67
2020/12/26 00:19:28;;;;;;;20.00;10.02;;;-1.00;99.90;;;;;;5088296;28;20028;-68
2020/12/26 00:21:54;;;;;;;25.75;10.55;;;-1.00;99.90;;;;;;5091307;28;20643;-64
2020/12/26 00:24:19;;;;;;;18.90;9.60;;;-1.00;99.90;;;;;;5091786;28;20111;-67
2020/12/26 00:26:45;;;;;;;24.33;10.48;;;-0.90;99.90;;;;;;5072446;28;20020;-69
2020/12/26 00:29:11;;;;;;;17.58;9.57;;;-1.00;99.90;;;;;;5091594;28;20381;-68
2020/12/26 00:31:37;;;;;;;18.67;9.85;;;-0.90;99.90;;;;;;5091580;28;20028;-72
2020/12/26 00:34:03;;;;;;;18.20;8.93;;;-1.00;99.90;;;;;;5091379;28;20058;-69
2020/12/26 00:36:28;;;;;;;28.30;10.57;;;-1.20;99.90;;;;;;5091679;28;20024;-67
2020/12/26 00:38:54;;;;;;;22.05;10.73;;;-1.30;99.90;;;;;;5090628;28;20038;-68
2020/12/26 00:41:20;;;;;;;23.02;10.50;;;-1.30;99.90;;;;;;5073828;28;20071;-68
2020/12/26 00:43:45;;;;;;;19.25;11.27;;;-1.30;99.90;;;;;;5090561;28;20127;-69
2020/12/26 00:46:11;;;;;;;26.40;11.50;;;-1.20;99.90;;;;;;5091588;28;20028;-69
2020/12/26 00:48:37;;;;;;;21.45;10.88;;;-1.30;99.90;;;;;;5090800;28;20080;-73
2020/12/26 00:51:03;;;;;;;18.88;10.10;;;-1.30;99.90;;;;;;5091636;28;20465;-69
2020/12/26 00:53:29;;;;;;;22.90;9.52;;;-1.40;99.90;;;;;;5091599;28;20450;-69
2020/12/26 00:55:56;;;;;;;20.92;10.05;;;-1.40;99.90;;;;;;5090618;28;20107;-68
2020/12/26 00:58:21;;;;;;;22.83;11.23;;;-1.50;99.90;;;;;;5091383;28;20078;-69
2020/12/26 01:00:47;;;;;;;26.35;10.73;;;-1.50;99.90;;;;;;5091674;28;20358;-67
2020/12/26 01:03:13;;;;;;;22.00;9.48;;;-1.50;99.90;;;;;;5073976;28;20050;-69
2020/12/26 01:05:38;;;;;;;18.58;9.80;;;-1.60;99.90;;;;;;5090779;28;20031;-72
2020/12/26 01:08:04;;;;;;;21.77;10.48;;;-1.50;99.90;;;;;;5073197;28;20028;-67
2020/12/26 01:10:30;;;;;;;22.40;10.45;;;-1.50;99.90;;;;;;5091445;28;20031;-69
2020/12/26 01:12:55;;;;;;;22.35;10.50;;;-1.50;99.90;;;;;;5090700;28;20028;-67
2020/12/26 01:15:21;;;;;;;18.63;10.10;;;-1.50;99.90;;;;;;5091573;28;20031;-67
2020/12/26 01:17:47;;;;;;;19.33;10.65;;;-1.50;99.90;;;;;;5090234;28;20086;-67
2020/12/26 01:20:13;;;;;;;23.05;11.43;;;-1.40;99.90;;;;;;5073318;28;20024;-70
2020/12/26 01:22:38;;;;;;;24.48;11.20;;;-1.40;99.90;;;;;;5090407;28;20024;-73
2020/12/26 01:25:07;;;;;;;21.90;11.05;;;-1.40;99.90;;;;;;5091382;28;20020;-66
2020/12/26 01:27:34;;;;;;;30.15;12.00;;;-1.40;99.90;;;;;;5091119;28;20020;-69
2020/12/26 01:30:00;;;;;;;23.75;12.00;;;-1.50;99.90;;;;;;5090330;28;20032;-68
2020/12/26 01:32:27;;;;;;;28.98;13.32;;;-1.50;99.90;;;;;;5090927;28;20073;-67
2020/12/26 01:34:57;;;;;;;30.45;12.57;;;-1.60;99.90;;;;;;5090302;28;20082;-67
2020/12/26 01:37:23;;;;;;;;;;;-1.60;99.90;;;;;;5075840;28;20024;-65
2020/12/26 01:39:49;;;;;;;23.15;11.48;;;-1.70;99.90;;;;;;5094060;28;20242;-67
2020/12/26 01:42:14;;;;;;;25.55;11.43;;;-1.80;99.90;;;;;;5094566;28;20031;-67
2020/12/26 01:44:40;;;;;;;27.42;11.63;;;-1.90;99.90;;;;;;5093556;28;20028;-70
2020/12/26 01:47:07;;;;;;;29.60;12.63;;;-2.00;99.90;;;;;;5094359;28;20024;-68
2020/12/26 01:49:33;;;;;;;33.88;14.50;;;-2.10;99.90;;;;;;5094531;28;20137;-70
2020/12/26 01:51:59;;;;;;;28.65;12.65;;;-2.00;99.90;;;;;;5093869;28;20043;-67
2020/12/26 01:54:25;;;;;;;35.15;13.60;;;-2.00;99.90;;;;;;5076930;28;20183;-69
2020/12/26 01:56:51;;;;;;;33.22;14.32;;;-1.90;99.90;;;;;;5093509;28;20059;-71
2020/12/26 01:59:17;;;;;;;33.75;14.73;;;-1.90;99.90;;;;;;5094692;28;20106;-67
2020/12/26 02:01:43;;;;;;;31.95;14.30;;;-1.80;99.90;;;;;;5094566;28;20024;-70
2020/12/26 02:04:12;;;;;;;34.17;14.13;;;-1.70;99.90;;;;;;5094406;28;20032;-67
2020/12/26 02:06:38;;;;;;;33.25;13.57;;;-1.60;99.90;;;;;;5093973;28;20458;-72
2020/12/26 02:09:06;;;;;;;31.02;13.70;;;-1.50;99.90;;;;;;5093587;28;20119;-64
2020/12/26 02:11:32;;;;;;;29.83;12.55;;;-1.50;99.90;;;;;;5094220;28;20060;-67
2020/12/26 02:13:58;;;;;;;27.90;12.70;;;-1.40;99.90;;;;;;5093388;28;20030;-67
2020/12/26 02:16:24;;;;;;;29.92;11.60;;;-1.30;99.90;;;;;;5094498;28;20020;-66
2020/12/26 02:18:49;;;;;;;37.13;13.75;;;-1.20;99.90;;;;;;5092815;28;20069;-69
2020/12/26 02:21:16;;;;;;;23.80;12.38;;;-1.20;99.90;;;;;;5094034;28;20024;-68
2020/12/26 02:23:48;;;;;;;27.52;12.02;;;-1.10;99.90;;;;;;5092950;28;20378;-73
2020/12/26 02:26:14;;;;;;;30.17;11.73;;;-1.10;99.90;;;;;;5093688;28;20469;-68
2020/12/26 02:28:41;;;;;;;28.90;13.07;;;-1.00;99.90;;;;;;5093226;28;20131;-73
2020/12/26 02:31:07;;;;;;;23.45;11.95;;;-1.00;99.90;;;;;;5094050;28;20077;-67
2020/12/26 02:33:34;;;;;;;25.02;12.75;;;-0.90;99.90;;;;;;5093603;28;20035;-70
2020/12/26 02:36:02;;;;;;;25.77;11.73;;;-0.90;99.90;;;;;;5092827;28;20051;-67
2020/12/26 02:38:28;;;;;;;22.42;11.45;;;-0.90;99.90;;;;;;5093637;28;20059;-69
2020/12/26 02:40:54;;;;;;;26.45;11.52;;;-0.90;99.90;;;;;;5092514;28;20028;-64
2020/12/26 02:43:23;;;;;;;35.28;13.07;;;-0.80;99.90;;;;;;5093598;28;20031;-69
2020/12/26 02:45:50;;;;;;;29.38;12.48;;;-0.80;99.90;;;;;;5092788;28;20039;-69
2020/12/26 02:48:15;;;;;;;24.20;11.43;;;-0.80;99.90;;;;;;5092046;28;20044;-68
2020/12/26 02:50:42;;;;;;;31.73;13.52;;;-0.80;99.90;;;;;;5092383;28;20035;-73
2020/12/26 02:53:08;;;;;;;30.17;13.50;;;-0.70;99.90;;;;;;5093603;28;20107;-67
2020/12/26 02:55:33;;;;;;;32.47;15.10;;;-0.70;99.90;;;;;;5093055;28;20138;-67
2020/12/26 02:57:59;;;;;;;31.42;13.52;;;-0.70;99.90;;;;;;5092369;28;20035;-67
2020/12/26 03:00:25;;;;;;;30.63;13.85;;;-0.70;99.90;;;;;;5093034;28;20049;-67
2020/12/26 03:02:51;;;;;;;37.28;15.48;;;-0.80;99.90;;;;;;5092133;28;20043;-68
2020/12/26 03:05:16;;;;;;;34.45;15.57;;;-0.80;99.90;;;;;;5092858;28;20032;-67
2020/12/26 03:07:42;;;;;;;33.03;14.82;;;-0.70;99.90;;;;;;5092295;28;20526;-73
2020/12/26 03:10:08;;;;;;;31.17;14.75;;;-0.70;99.90;;;;;;5093102;28;20062;-68
2020/12/26 03:12:34;;;;;;;33.85;14.23;;;-0.60;99.90;;;;;;5093091;28;20032;-64
2020/12/26 03:14:59;;;;;;;29.98;14.13;;;-0.70;99.90;;;;;;5091917;28;20020;-67
2020/12/26 03:17:25;;;;;;;34.85;14.45;;;-0.70;99.90;;;;;;5075012;28;20024;-67
2020/12/26 03:19:50;;;;;;;33.42;13.93;;;-0.80;99.90;;;;;;5092044;28;20469;-67
2020/12/26 03:22:16;;;;;;;30.02;13.68;;;-0.80;99.90;;;;;;5092877;28;20028;-68
2020/12/26 03:24:43;;;;;;;35.20;15.02;;;-0.80;99.90;;;;;;5092364;28;20035;-73
2020/12/26 03:27:08;;;;;;;32.72;14.38;;;-0.80;99.90;;;;;;5092485;28;20028;-69
2020/12/26 03:29:34;;;;;;;37.45;15.75;;;-0.80;99.90;;;;;;5092368;28;20104;-66
2020/12/26 03:32:00;;;;;;;36.03;15.52;;;-0.80;99.90;;;;;;5092150;28;20221;-69
2020/12/26 03:34:25;;;;;;;32.70;13.30;;;-0.80;99.90;;;;;;5092637;28;20044;-70
2020/12/26 03:36:52;;;;;;;33.58;14.38;;;-0.80;99.90;;;;;;5091537;28;20102;-69
2020/12/26 03:39:18;;;;;;;45.50;16.33;;;-0.80;99.90;;;;;;5092637;28;20032;-68
2020/12/26 03:41:43;;;;;;;38.78;15.45;;;-0.80;99.90;;;;;;5091897;28;20162;-71
2020/12/26 03:44:09;;;;;;;34.92;14.82;;;-0.80;99.90;;;;;;5092243;28;20035;-68
2020/12/26 03:46:34;;;;;;;41.50;13.77;;;-0.80;99.90;;;;;;5092162;28;20477;-67
2020/12/26 03:49:00;;;;;;;30.23;14.20;;;-0.80;99.90;;;;;;5091716;28;20051;-69
2020/12/26 03:51:26;;;;;;;32.08;14.50;;;-0.80;99.90;;;;;;5091867;28;20028;-65
2020/12/26 03:53:51;;;;;;;33.50;14.55;;;-0.80;99.90;;;;;;5091561;28;20054;-70
2020/12/26 03:56:17;;;;;;;42.38;15.02;;;-0.70;99.90;;;;;;5092191;28;20016;-66
2020/12/26 03:58:43;;;;;;;29.40;13.73;;;-0.70;99.90;;;;;;5091592;28;20094;-72
2020/12/26 04:01:09;;;;;;;29.17;13.18;;;-0.70;99.90;;;;;;5091491;28;20462;-67
2020/12/26 04:03:34;;;;;;;28.17;13.63;;;-0.70;99.90;;;;;;5092481;28;20047;-69
2020/12/26 04:06:00;;;;;;;28.38;12.85;;;-0.70;99.90;;;;;;5089145;28;20429;-66
2020/12/26 04:08:26;;;;;;;28.85;13.45;;;-0.70;99.90;;;;;;5071654;28;20036;-67
2020/12/26 04:10:51;;;;;;;25.27;13.30;;;-0.70;99.90;;;;;;5071053;28;20031;-70
2020/12/26 04:13:17;;;;;;;28.98;13.38;;;-0.70;99.90;;;;;;5071524;28;20496;-66
2020/12/26 04:15:43;;;;;;;25.80;13.18;;;-0.70;99.90;;;;;;5071431;28;20025;-73
2020/12/26 04:18:09;;;;;;;29.80;13.40;;;-0.70;99.90;;;;;;5071692;28;20024;-67
2020/12/26 04:20:34;;;;;;;25.70;13.30;;;-0.70;99.90;;;;;;5071751;28;20032;-65
2020/12/26 04:23:00;;;;;;;30.20;13.57;;;-0.70;99.90;;;;;;5071103;28;20033;-68
2020/12/26 04:25:26;;;;;;;27.13;12.65;;;-0.70;99.90;;;;;;5071308;28;20029;-67
2020/12/26 04:27:51;;;;;;;27.85;13.13;;;-0.70;99.90;;;;;;5052897;28;20025;-70
2020/12/26 04:30:17;;;;;;;28.55;12.65;;;-0.70;99.90;;;;;;5071481;28;20031;-69
2020/12/26 04:32:43;;;;;;;33.92;13.27;;;-0.60;99.90;;;;;;5071341;28;20055;-72
2020/12/26 04:35:09;;;;;;;30.00;12.52;;;-0.60;99.90;;;;;;5070877;28;20138;-67
2020/12/26 04:37:35;;;;;;;26.42;10.90;;;-0.50;99.90;;;;;;5071439;28;20339;-69
2020/12/26 04:40:00;;;;;;;27.30;13.30;;;-0.50;99.90;;;;;;5070672;28;20020;-66
2020/12/26 04:42:26;;;;;;;26.73;13.25;;;-0.40;99.90;;;;;;5053540;28;20462;-69
2020/12/26 04:44:54;;;;;;;28.75;13.50;;;-0.40;99.90;;;;;;5070532;28;20112;-70
2020/12/26 04:47:29;;;;;;;31.20;14.18;;;-0.40;99.90;;;;;;5071070;28;20067;-68
2020/12/26 04:49:59;;;;;;;28.08;14.52;;;-0.40;99.90;;;;;;5070515;28;20029;-66
2020/12/26 04:52:28;;;;;;;29.25;13.40;;;-0.40;99.90;;;;;;5071103;28;20543;-67
2020/12/26 04:54:54;;;;;;;27.13;13.60;;;-0.40;99.90;;;;;;5070752;28;20058;-63
2020/12/26 04:57:20;;;;;;;29.70;14.13;;;-0.40;99.90;;;;;;5053330;28;20024;-66
2020/12/26 04:59:46;;;;;;;30.17;12.60;;;-0.30;99.90;;;;;;5071099;28;20025;-72
2020/12/26 05:02:14;;;;;;;26.65;12.38;;;-0.30;99.90;;;;;;5071011;28;20028;-65
2020/12/26 05:04:42;;;;;;;26.85;11.77;;;-0.30;99.90;;;;;;5071079;28;20029;-66
2020/12/26 05:07:08;;;;;;;25.20;11.57;;;-0.30;99.90;;;;;;5081579;28;20089;-68
2020/12/26 05:09:33;;;;;;;32.50;12.48;;;-0.30;99.90;;;;;;5091287;28;20043;-64
2020/12/26 05:12:00;;;;;;;27.55;11.48;;;-0.20;99.90;;;;;;5092213;28;20457;-68
2020/12/26 05:14:29;;;;;;;29.83;11.77;;;-0.20;99.90;;;;;;5095396;28;20020;-69
2020/12/26 05:16:55;;;;;;;25.67;12.30;;;-0.10;99.90;;;;;;5094445;28;20437;-68
2020/12/26 05:19:21;;;;;;;28.20;12.25;;;-0.10;99.90;;;;;;5094984;28;20040;-67
2020/12/26 05:21:57;;;;;;;23.25;11.35;;;-0.10;99.90;;;;;;5076292;28;20035;-72
2020/12/26 05:24:23;;;;;;;27.38;12.23;;;0.00;99.90;;;;;;5095199;28;20384;-69
2020/12/26 05:26:51;;;;;;;22.05;11.13;;;0.00;99.90;;;;;;5094161;28;20435;-68
2020/12/26 05:29:19;;;;;;;26.77;12.43;;;0.00;99.90;;;;;;5094709;28;20036;-66
2020/12/26 05:31:53;;;;;;;27.27;12.68;;;0.10;99.90;;;;;;5094284;28;20020;-72
2020/12/26 05:34:21;;;;;;;27.60;13.60;;;0.10;99.90;;;;;;5095145;28;20074;-69
2020/12/26 05:36:46;;;;;;;28.20;13.13;;;0.10;99.90;;;;;;5076907;28;20028;-72
2020/12/26 05:39:12;;;;;;;27.83;13.93;;;0.10;99.90;;;;;;5076271;28;20074;-69
2020/12/26 05:41:40;;;;;;;28.27;12.68;;;0.10;99.90;;;;;;5094796;28;20101;-67
2020/12/26 05:44:06;;;;;;;32.00;14.18;;;0.10;99.90;;;;;;5094004;28;20088;-68
2020/12/26 05:46:32;;;;;;;26.65;13.05;;;0.10;99.90;;;;;;5076702;28;20032;-72
2020/12/26 05:48:59;;;;;;;35.08;14.38;;;0.00;99.90;;;;;;5094067;28;20047;-71
2020/12/26 05:51:26;;;;;;;35.72;14.40;;;0.00;99.90;;;;;;5094497;28;20032;-72
2020/12/26 05:53:57;;;;;;;37.30;14.85;;;0.00;99.90;;;;;;5093441;28;20125;-70
2020/12/26 05:56:23;;;;;;;34.35;14.65;;;0.00;99.90;;;;;;5094770;28;20070;-67
2020/12/26 05:58:49;;;;;;;39.50;14.57;;;0.00;99.90;;;;;;5093624;28;20032;-72
2020/12/26 06:01:23;;;;;;;33.60;15.52;;;-0.10;99.90;;;;;;5094266;28;20381;-69
2020/12/26 06:03:49;;;;;;;30.10;14.45;;;-0.10;99.90;;;;;;5093435;28;20039;-73
2020/12/26 06:06:15;;;;;;;34.72;14.57;;;-0.20;99.90;;;;;;5089848;28;20024;-67
2020/12/26 06:08:42;;;;;;;26.30;14.05;;;-0.30;99.90;;;;;;5074280;28;20032;-69
2020/12/26 06:11:08;;;;;;;29.52;14.50;;;-0.40;99.90;;;;;;5073608;28;20592;-66
2020/12/26 06:13:36;;;;;;;36.63;15.13;;;-0.50;99.90;;;;;;5073830;28;20473;-69
2020/12/26 06:16:20;;;;;;;37.83;15.82;;;-0.70;99.90;;;;;;5072993;28;20035;-72
2020/12/26 06:18:58;;;;;;;41.00;17.67;;;-0.80;99.90;;;;;;5073490;28;20462;-74
2020/12/26 06:21:25;;;;;;;38.60;15.88;;;-0.90;99.90;;;;;;5073960;28;20027;-69
2020/12/26 06:23:52;;;;;;;37.33;16.55;;;-0.90;99.90;;;;;;5073073;28;20021;-68
2020/12/26 06:26:18;;;;;;;33.53;15.95;;;-1.00;99.90;;;;;;5073705;28;20035;-68
2020/12/26 06:28:45;;;;;;;38.95;16.23;;;-1.10;99.90;;;;;;5055817;28;20059;-66
2020/12/26 06:31:11;;;;;;;43.92;19.50;;;-1.20;99.90;;;;;;5072612;28;20085;-71
2020/12/26 06:33:45;;;;;;;49.00;20.38;;;-1.20;99.90;;;;;;5073440;28;20036;-71
2020/12/26 06:36:11;;;;;;;45.10;19.92;;;-1.30;99.90;;;;;;5073031;28;20030;-72
2020/12/26 06:38:38;;;;;;;47.15;18.20;;;-1.30;99.90;;;;;;5073262;28;20477;-71
2020/12/26 06:41:18;;;;;;;42.35;17.98;;;-1.30;99.90;;;;;;5054636;28;20028;-71
2020/12/26 06:43:53;;;;;;;37.70;17.90;;;-1.40;99.90;;;;;;5073538;28;20473;-67
2020/12/26 06:46:21;;;;;;;41.50;18.40;;;-1.40;99.90;;;;;;5073471;28;20028;-70
2020/12/26 06:48:51;;;;;;;41.20;17.70;;;-1.50;99.90;;;;;;5072689;28;20490;-73
2020/12/26 06:51:29;;;;;;;40.58;17.60;;;-1.50;99.90;;;;;;5073150;28;20051;-67
2020/12/26 06:54:01;;;;;;;44.25;18.27;;;-1.60;99.90;;;;;;5072483;28;20032;-70
2020/12/26 06:56:35;;;;;;;49.85;19.13;;;-1.60;99.90;;;;;;5073536;28;20104;-68
2020/12/26 06:59:11;;;;;;;49.88;19.02;;;-1.60;99.90;;;;;;5072352;28;20465;-71
2020/12/26 07:01:39;;;;;;;48.35;18.25;;;-1.60;99.90;;;;;;5072799;28;20028;-70
2020/12/26 07:04:10;;;;;;;38.78;16.98;;;-1.50;99.90;;;;;;5072324;28;20492;-67
2020/12/26 07:06:44;;;;;;;48.72;18.52;;;-1.50;99.90;;;;;;5080151;28;20059;-65
2020/12/26 07:09:12;;;;;;;39.95;17.25;;;-1.50;99.90;;;;;;5092326;28;20115;-68
2020/12/26 07:11:45;;;;;;;42.63;17.85;;;-1.50;99.90;;;;;;5093135;28;20435;-70
2020/12/26 07:14:37;;;;;;;40.90;17.73;;;-1.50;99.90;;;;;;5092069;28;20454;-68
2020/12/26 07:17:13;;;;;;;44.90;17.58;;;-1.40;99.90;;;;;;5079717;28;20107;-70
2020/12/26 07:19:45;;;;;;;46.00;18.02;;;-1.50;99.90;;;;;;5093381;28;20111;-63
2020/12/26 07:22:27;;;;;;;44.65;19.33;;;-1.40;99.90;;;;;;5091931;28;20024;-72
2020/12/26 07:25:07;;;;;;;46.75;17.48;;;-1.40;99.90;;;;;;5091974;28;20044;-71
2020/12/26 07:27:41;;;;;;;47.17;18.67;;;-1.40;99.90;;;;;;5092600;28;20035;-70
2020/12/26 07:30:20;;;;;;;49.08;19.33;;;-1.40;99.90;;;;;;5091933;28;20117;-69
2020/12/26 07:32:47;;;;;;;40.70;17.97;;;-1.30;99.90;;;;;;5092687;28;20111;-68
2020/12/26 07:35:16;;;;;;;49.67;18.23;;;-1.30;99.90;;;;;;5091236;28;20465;-72
2020/12/26 07:37:54;;;;;;;44.33;18.10;;;-1.30;99.90;;;;;;5092013;28;20370;-70
2020/12/26 07:40:24;;;;;;;45.40;17.70;;;-1.20;99.90;;;;;;5085019;28;20031;-70
2020/12/26 07:42:50;;;;;;;40.58;17.60;;;-1.20;99.90;;;;;;5079314;28;20386;-74
2020/12/26 07:45:17;;;;;;;34.97;17.30;;;-1.20;99.90;;;;;;5076208;28;20059;-70
2020/12/26 07:47:45;;;;;;;39.58;17.65;;;-1.10;99.90;;;;;;5072180;28;20041;-68
2020/12/26 07:50:14;;;;;;;36.95;16.40;;;-1.10;99.90;;;;;;5071326;28;20044;-71
2020/12/26 07:52:45;;;;;;;44.17;16.07;;;-1.00;99.90;;;;;;5072045;28;20032;-70
2020/12/26 07:55:10;;;;;;;32.97;15.95;;;-0.90;99.90;;;;;;5071432;28;20093;-71
2020/12/26 07:57:37;;;;;;;34.03;15.27;;;-0.90;99.90;;;;;;5072029;28;20056;-70
2020/12/26 08:00:03;;;;;;;28.25;14.57;;;-0.80;99.90;;;;;;5071149;28;20109;-71
2020/12/26 08:02:29;;;;;;;38.83;15.68;;;-0.70;99.90;;;;;;5071962;28;20458;-71
2020/12/26 08:04:55;;;;;;;32.17;13.50;;;-0.70;99.90;;;;;;5070956;28;20074;-72
2020/12/26 08:07:21;;;;;;;30.52;14.73;;;-0.70;99.90;;;;;;5085314;28;20450;-72
2020/12/26 08:09:50;;;;;;;27.60;12.15;;;-0.60;99.90;;;;;;5091995;28;20032;-67
2020/12/26 08:12:16;;;;;;;29.17;13.35;;;-0.60;99.90;;;;;;5091116;28;20553;-69
2020/12/26 08:14:42;;;;;;;25.20;12.43;;;-0.60;99.90;;;;;;5092270;28;20419;-72
2020/12/26 08:17:10;;;;;;;24.42;12.18;;;-0.50;99.90;;;;;;5090953;28;20055;-72
2020/12/26 08:19:36;;;;;;;27.77;13.50;;;-0.50;99.90;;;;;;5092006;28;20074;-71
2020/12/26 08:22:02;;;;;;;28.48;12.77;;;-0.50;99.90;;;;;;5091259;28;20415;-70
2020/12/26 08:24:28;;;;;;;25.92;12.57;;;-0.40;99.90;;;;;;5091807;28;20481;-72
2020/12/26 08:26:56;;;;;;;22.10;11.90;;;-0.40;99.90;;;;;;5091042;28;20069;-71
2020/12/26 08:29:32;;;;;;;23.77;11.13;;;-0.40;99.90;;;;;;5092118;28;20039;-71
2020/12/26 08:32:11;;;;;;;25.27;11.45;;;-0.40;99.90;;;;;;5087954;28;20035;-70
2020/12/26 08:34:39;;;;;;;26.30;12.88;;;-0.30;99.90;;;;;;5051754;28;20382;-69
2020/12/26 08:37:23;;;;;;;23.88;11.85;;;-0.30;99.90;;;;;;5070404;28;20029;-71
2020/12/26 08:39:58;;;;;;;29.42;12.77;;;-0.20;99.90;;;;;;5071587;28;20025;-71
2020/12/26 08:42:26;;;;;;;25.05;12.60;;;-0.20;99.90;;;;;;5070848;28;20055;-69
2020/12/26 08:44:52;;;;;;;24.95;12.02;;;-0.10;99.90;;;;;;5071389;28;20038;-74
2020/12/26 08:47:31;;;;;;;23.77;11.80;;;-0.10;99.90;;;;;;5075045;28;20029;-70
2020/12/26 08:49:57;;;;;;;28.93;11.83;;;-0.10;99.90;;;;;;5094846;28;20389;-70
2020/12/26 08:52:27;;;;;;;23.55;11.15;;;0.00;99.90;;;;;;5095610;28;20460;-67
2020/12/26 08:55:09;;;;;;;32.35;13.07;;;0.00;99.90;;;;;;5077491;28;20131;-73
2020/12/26 08:57:36;;;;;;;26.17;11.98;;;0.10;99.90;;;;;;5095483;28;20048;-70
2020/12/26 09:00:25;;;;;;;25.77;11.90;;;0.20;99.90;;;;;;5095494;28;20099;-69
2020/12/26 09:02:53;;;;;;;23.95;11.38;;;0.30;99.90;;;;;;5095535;28;20473;-75
2020/12/26 09:05:21;;;;;;;21.00;10.38;;;0.40;99.90;;;;;;5094575;28;20534;-68
2020/12/26 09:07:46;;;;;;;24.85;10.05;;;0.50;99.90;;;;;;5095555;28;20020;-68
2020/12/26 09:10:12;;;;;;;21.17;9.90;;;0.70;99.90;;;;;;5094664;28;20047;-69
2020/12/26 09:12:38;;;;;;;19.58;10.00;;;0.80;99.90;;;;;;5095460;28;20052;-64
2020/12/26 09:15:03;;;;;;;17.52;10.13;;;0.90;99.90;;;;;;5094449;28;20514;-68
2020/12/26 09:17:29;;;;;;;23.20;9.93;;;1.00;99.90;;;;;;5095150;28;20128;-69
2020/12/26 09:19:57;;;;;;;20.17;10.15;;;1.10;99.90;;;;;;5094874;28;20035;-75
2020/12/26 09:22:28;;;;;;;20.90;9.80;;;1.20;99.90;;;;;;5095051;28;20404;-67
2020/12/26 09:24:53;;;;;;;19.05;8.85;;;1.40;99.90;;;;;;5076809;28;20032;-77
2020/12/26 09:27:22;;;;;;;20.38;10.43;;;1.50;99.90;;;;;;5094832;28;20031;-68
2020/12/26 09:29:54;;;;;;;16.02;8.27;;;1.60;99.70;;;;;;5094809;28;20036;-68
2020/12/26 09:32:19;;;;;;;13.85;7.18;;;1.80;98.40;;;;;;5094509;28;20078;-67
2020/12/26 09:34:45;;;;;;;14.38;7.53;;;1.80;95.80;;;;;;5094645;28;20447;-68
2020/12/26 09:37:11;;;;;;;14.68;7.75;;;1.80;95.90;;;;;;5093943;28;20028;-68
2020/12/26 09:39:37;;;;;;;17.20;8.18;;;1.80;96.20;;;;;;5094998;28;20381;-67
2020/12/26 09:42:04;;;;;;;19.40;8.13;;;1.80;97.40;;;;;;5094137;28;20028;-69
2020/12/26 09:44:29;;;;;;;13.05;7.65;;;1.80;96.80;;;;;;5094729;28;20106;-72
2020/12/26 09:46:59;;;;;;;16.60;8.68;;;1.80;97.50;;;;;;5094286;28;20099;-75
2020/12/26 09:49:25;;;;;;;;;;;1.90;96.80;;;;;;5094217;28;20487;-70
2020/12/26 09:51:51;;;;;;;13.88;7.47;;;2.00;96.50;;;;;;5093596;28;19908;-69
2020/12/26 09:54:17;;;;;;;15.07;7.88;;;2.00;95.80;;;;;;5092452;28;20028;-72
2020/12/26 09:56:43;;;;;;;14.65;7.75;;;2.10;95.40;;;;;;5093327;28;20051;-69
2020/12/26 09:59:08;;;;;;;13.73;7.93;;;2.10;95.80;;;;;;5074057;28;20035;-70
2020/12/26 10:01:34;;;;;;;16.85;8.27;;;2.10;95.70;;;;;;5075096;28;20036;-69
2020/12/26 10:04:00;;;;;;;12.70;7.60;;;2.10;95.80;;;;;;5092487;28;20032;-65
2020/12/26 10:06:26;;;;;;;13.90;8.20;;;2.10;96.10;;;;;;5093043;28;20032;-67
2020/12/26 10:08:51;;;;;;;15.15;8.55;;;2.20;97.30;;;;;;5075138;28;20040;-66
2020/12/26 10:11:19;;;;;;;10.30;6.43;;;2.30;96.70;;;;;;5092306;28;20759;-69
2020/12/26 10:13:46;;;;;;;11.38;7.20;;;2.30;94.60;;;;;;5093296;28;20023;-70
2020/12/26 10:16:14;;;;;;;12.10;6.90;;;2.40;93.90;;;;;;5091850;28;20120;-70
2020/12/26 10:18:40;;;;;;;12.55;7.47;;;2.50;94.60;;;;;;5092761;28;20362;-70
2020/12/26 10:21:05;;;;;;;16.40;7.78;;;2.60;93.10;;;;;;5091976;28;20507;-70
2020/12/26 10:23:31;;;;;;;12.20;7.45;;;2.70;93.40;;;;;;5092786;28;20032;-70
2020/12/26 10:26:05;;;;;;;12.35;7.53;;;2.70;94.50;;;;;;5092398;28;20047;-79
2020/12/26 10:28:31;;;;;;;16.52;7.72;;;2.90;94.10;;;;;;5092955;28;20133;-70
2020/12/26 10:30:57;;;;;;;11.20;6.38;;;3.00;90.70;;;;;;5087402;28;20036;-78
2020/12/26 10:33:22;;;;;;;13.43;6.65;;;3.00;91.20;;;;;;5111335;28;20034;-78
2020/12/26 10:35:48;;;;;;;13.65;6.53;;;3.10;92.00;;;;;;5087033;28;20024;-69
2020/12/26 10:38:14;;;;;;;14.07;7.20;;;3.20;90.30;;;;;;5092452;28;20521;-68
2020/12/26 10:40:40;;;;;;;10.90;5.82;;;3.20;88.90;;;;;;5092561;28;20056;-69
2020/12/26 10:43:05;;;;;;;8.98;5.43;;;3.20;87.20;;;;;;5091748;28;20082;-67
2020/12/26 10:45:31;;;;;;;15.32;6.30;;;3.20;88.40;;;;;;5093005;28;20028;-69
2020/12/26 10:47:57;;;;;;;13.27;6.07;;;3.10;89.40;;;;;;5068709;28;665234;-77
2020/12/26 10:50:22;;;;;;;11.38;5.47;;;3.10;89.00;;;;;;5092507;28;20473;-69
2020/12/26 10:52:48;;;;;;;9.45;5.30;;;3.20;86.70;;;;;;5093247;28;20477;-69
2020/12/26 10:55:14;;;;;;;11.38;5.53;;;3.30;86.00;;;;;;5092628;28;20028;-70
2020/12/26 10:57:42;;;;;;;9.07;5.20;;;3.40;85.00;;;;;;5093303;28;20491;-72
2020/12/26 11:00:07;;;;;;;8.75;5.10;;;3.50;85.70;;;;;;5091901;28;20032;-70
2020/12/26 11:02:33;;;;;;;10.50;5.70;;;3.60;84.30;;;;;;5092561;28;20036;-70
2020/12/26 11:04:59;;;;;;;9.65;5.50;;;3.60;84.20;;;;;;5091142;28;20027;-77
2020/12/26 11:07:24;;;;;;;12.70;5.10;;;3.70;83.00;;;;;;5098586;28;20024;-70
2020/12/26 11:09:50;;;;;;;9.98;5.03;;;3.70;82.20;;;;;;5092168;28;20111;-70
2020/12/26 11:12:15;;;;;;;8.90;4.88;;;3.60;82.00;;;;;;5091976;28;20024;-70
2020/12/26 11:14:41;;;;;;;10.95;5.28;;;3.60;82.00;;;;;;5093404;28;20032;-70
2020/12/26 11:17:07;;;;;;;10.10;4.80;;;3.60;80.00;;;;;;5091801;28;20056;-65
2020/12/26 11:19:32;;;;;;;6.65;4.30;;;3.60;79.30;;;;;;5093135;28;20111;-73
2020/12/26 11:21:58;;;;;;;7.97;5.22;;;3.60;80.30;;;;;;5092498;28;20457;-78
2020/12/26 11:24:24;;;;;;;6.88;4.47;;;3.70;80.20;;;;;;5093052;28;20465;-71
2020/12/26 11:26:49;;;;;;;6.10;4.22;;;3.80;79.70;;;;;;5090235;28;20028;-71
2020/12/26 11:29:15;;;;;;;10.57;4.78;;;4.00;78.40;;;;;;5091295;28;20035;-69
2020/12/26 11:31:41;;;;;;;8.40;4.40;;;4.20;77.30;;;;;;5092538;28;20020;-69
2020/12/26 11:34:10;;;;;;;6.38;4.25;;;4.30;77.40;;;;;;5094929;28;20039;-70
2020/12/26 11:36:36;;;;;;;7.00;4.07;;;4.30;74.10;;;;;;5092669;28;20046;-71
2020/12/26 11:39:02;;;;;;;9.23;4.20;;;4.30;76.10;;;;;;5091643;28;20028;-79
2020/12/26 11:41:28;;;;;;;6.45;4.05;;;4.30;75.80;;;;;;5092175;28;20115;-70
2020/12/26 11:43:58;;;;;;;7.95;4.30;;;4.40;74.20;;;;;;5092489;28;20060;-69
2020/12/26 11:46:24;;;;;;;5.85;3.65;;;4.50;75.50;;;;;;5091610;28;20378;-65
2020/12/26 11:48:50;;;;;;;10.68;3.90;;;4.40;73.70;;;;;;5091880;28;20069;-71
2020/12/26 11:51:16;;;;;;;8.07;3.42;;;4.30;74.00;;;;;;5091620;28;20051;-72
2020/12/26 11:53:41;;;;;;;8.02;4.20;;;4.30;75.90;;;;;;5092628;28;20028;-66
2020/12/26 11:56:09;;;;;;;8.25;4.55;;;4.20;74.30;;;;;;5075612;28;20097;-69
2020/12/26 11:58:36;;;;;;;7.55;3.92;;;4.00;74.90;;;;;;5071991;28;20031;-71
2020/12/26 12:01:02;;;;;;;11.23;4.40;;;3.90;76.30;;;;;;5071213;28;20032;-80
2020/12/26 12:03:28;;;;;;;7.22;4.22;;;3.90;74.40;;;;;;5072161;28;20025;-71
2020/12/26 12:05:54;;;;;;;5.15;3.60;;;3.80;74.50;;;;;;5082935;28;20132;-67
2020/12/26 12:08:19;;;;;;;7.40;3.38;;;3.80;73.30;;;;;;5071264;28;20024;-70
2020/12/26 12:10:45;;;;;;;5.10;3.17;;;3.70;73.60;;;;;;5071854;28;20070;-70
2020/12/26 12:13:11;;;;;;;7.55;3.95;;;3.70;72.40;;;;;;5070602;28;20093;-70
2020/12/26 12:15:37;;;;;;;5.88;3.80;;;3.80;72.40;;;;;;5071694;28;20056;-69
2020/12/26 12:18:02;;;;;;;6.18;4.20;;;3.80;74.60;;;;;;5070672;28;20032;-80
2020/12/26 12:20:29;;;;;;;11.77;4.82;;;3.90;74.80;;;;;;5053949;28;20028;-72
2020/12/26 12:22:55;;;;;;;10.18;4.22;;;4.00;75.40;;;;;;5071409;28;20569;-70
2020/12/26 12:25:22;;;;;;;9.85;4.93;;;4.00;75.00;;;;;;5070794;28;20032;-71
2020/12/26 12:27:48;;;;;;;10.27;4.72;;;4.10;74.80;;;;;;5053778;28;20025;-70
2020/12/26 12:30:14;;;;;;;11.20;5.07;;;4.10;74.80;;;;;;5070793;28;20044;-69
2020/12/26 12:32:40;;;;;;;6.70;4.35;;;4.10;75.60;;;;;;5071087;28;20386;-67
2020/12/26 12:35:05;;;;;;;7.85;4.65;;;4.10;76.00;;;;;;5070570;28;20023;-71
2020/12/26 12:37:31;;;;;;;9.35;4.72;;;4.10;76.30;;;;;;5071106;28;20032;-69